createdAt,value
2018-01-29T00:01:38.458Z,101919.20
2018-01-29T00:04:05.958Z,101916.22
2018-01-29T00:06:33.643Z,101915.51
2018-01-29T00:09:01.125Z,101914.38
2018-01-29T00:11:28.572Z,101912.41
2018-01-29T00:13:56.028Z,101906.21
2018-01-29T00:16:23.473Z,101915.99
2018-01-29T00:18:50.924Z,101915.07
2018-01-29T00:21:18.545Z,101903.06
2018-01-29T00:23:47.115Z,101897.77
2018-01-29T00:26:15.384Z,101883.84
2018-01-29T00:28:43.005Z,101901.67
2018-01-29T00:31:11.740Z,101905.36
2018-01-29T00:33:39.411Z,101894.23
2018-01-29T00:36:06.837Z,101903.57
2018-01-29T00:38:34.334Z,101887.58
2018-01-29T00:41:01.781Z,101882.42
2018-01-29T00:43:29.340Z,101890.44
2018-01-29T00:45:56.781Z,101884.84
2018-01-29T00:48:24.240Z,101892.38
2018-01-29T00:50:51.683Z,101899.24
2018-01-29T00:53:19.151Z,101875.44
2018-01-29T00:55:46.625Z,101874.67
2018-01-29T00:58:14.176Z,101877.25
2018-01-29T01:00:41.617Z,101880.41
2018-01-29T01:03:09.050Z,101871.69
2018-01-29T01:05:36.500Z,101878.09
2018-01-29T01:08:03.925Z,101873.19
2018-01-29T01:10:31.389Z,101877.80
2018-01-29T01:12:59.009Z,101871.70
2018-01-29T01:15:26.501Z,101879.82
2018-01-29T01:17:53.943Z,101873.13
2018-01-29T01:20:21.498Z,101876.12
2018-01-29T01:22:48.936Z,101870.33
2018-01-29T01:25:16.416Z,101880.59
2018-01-29T01:27:44.378Z,101868.45
2018-01-29T01:30:11.812Z,101882.45
2018-01-29T01:32:39.335Z,101864.34
2018-01-29T01:35:06.909Z,101870.77
2018-01-29T01:37:34.371Z,101879.89
2018-01-29T01:40:01.828Z,101869.05
2018-01-29T01:42:29.364Z,101874.38
2018-01-29T01:44:56.930Z,101873.70
2018-01-29T01:47:24.419Z,101872.19
2018-01-29T01:49:51.854Z,101870.72
2018-01-29T01:52:19.317Z,101880.65
2018-01-29T01:54:46.777Z,101875.22
2018-01-29T01:57:14.225Z,101882.30
2018-01-29T01:59:42.837Z,101864.55
2018-01-29T02:02:10.452Z,101875.38
2018-01-29T02:04:37.878Z,101871.89
2018-01-29T02:07:05.485Z,101855.31
2018-01-29T02:09:32.913Z,101875.59
2018-01-29T02:12:00.356Z,101867.68
2018-01-29T02:14:27.937Z,101868.64
2018-01-29T02:16:55.496Z,101860.97
2018-01-29T02:19:22.954Z,101852.12
2018-01-29T02:21:50.499Z,101848.38
2018-01-29T02:24:17.927Z,101847.75
2018-01-29T02:26:46.012Z,101851.85
2018-01-29T02:29:13.483Z,101844.75
2018-01-29T02:31:40.969Z,101839.56
2018-01-29T02:34:08.468Z,101837.92
2018-01-29T02:36:35.918Z,101841.58
2018-01-29T02:39:03.357Z,101844.31
2018-01-29T02:41:30.920Z,101843.15
2018-01-29T02:43:58.437Z,101838.09
2018-01-29T02:46:25.852Z,101835.45
2018-01-29T02:48:53.297Z,101853.59
2018-01-29T02:51:20.725Z,101830.72
2018-01-29T02:53:48.193Z,101831.16
2018-01-29T02:56:16.117Z,101826.38
2018-01-29T02:58:43.567Z,101819.09
2018-01-29T03:01:10.997Z,101823.09
2018-01-29T03:03:38.635Z,101834.30
2018-01-29T03:06:06.093Z,101820.23
2018-01-29T03:08:33.534Z,101826.91
2018-01-29T03:11:01.065Z,101820.81
2018-01-29T03:13:28.541Z,101819.33
2018-01-29T03:15:56.024Z,101818.06
2018-01-29T03:18:23.520Z,101823.11
2018-01-29T03:20:50.977Z,101806.26
2018-01-29T03:23:18.444Z,101806.11
2018-01-29T03:25:46.291Z,101807.38
2018-01-29T03:28:13.719Z,101796.40
2018-01-29T03:30:41.180Z,101781.60
2018-01-29T03:33:08.624Z,101785.75
2018-01-29T03:35:36.098Z,101788.34
2018-01-29T03:38:03.547Z,101777.66
2018-01-29T03:40:31.010Z,101777.50
2018-01-29T03:42:58.517Z,101773.23
2018-01-29T03:45:26.000Z,101769.97
2018-01-29T03:47:53.412Z,101768.23
2018-01-29T03:50:20.885Z,101748.66
2018-01-29T03:52:48.320Z,101749.89
2018-01-29T03:55:18.545Z,101746.70
2018-01-29T03:57:46.395Z,101755.44
2018-01-29T04:00:13.846Z,101760.62
2018-01-29T04:02:41.309Z,101752.17
2018-01-29T04:05:08.750Z,101761.14
2018-01-29T04:07:36.237Z,101757.80
2018-01-29T04:10:03.673Z,101737.41
2018-01-29T04:12:33.305Z,101727.59
2018-01-29T04:15:00.792Z,101737.53
2018-01-29T04:17:28.284Z,101749.69
2018-01-29T04:19:55.708Z,101748.28
2018-01-29T04:22:23.254Z,101745.42
2018-01-29T04:24:50.729Z,101737.78
2018-01-29T04:27:18.176Z,101755.22
2018-01-29T04:29:46.528Z,101739.41
2018-01-29T04:32:13.992Z,101731.27
2018-01-29T04:34:41.501Z,101743.32
2018-01-29T04:37:08.939Z,101740.17
2018-01-29T04:39:36.387Z,101718.19
2018-01-29T04:42:03.820Z,101715.81
2018-01-29T04:44:31.349Z,101716.21
2018-01-29T04:46:58.781Z,101709.83
2018-01-29T04:49:26.234Z,101724.77
2018-01-29T04:51:53.722Z,101704.20
2018-01-29T04:54:21.152Z,101713.94
2018-01-29T04:56:48.580Z,101709.98
2018-01-29T04:59:16.733Z,101714.80
2018-01-29T05:01:44.169Z,101708.41
2018-01-29T05:04:11.615Z,101706.18
2018-01-29T05:06:39.065Z,101715.76
2018-01-29T05:09:10.280Z,101715.25
2018-01-29T05:11:47.087Z,101715.31
2018-01-29T05:14:14.887Z,101698.28
2018-01-29T05:16:42.325Z,101702.38
2018-01-29T05:19:09.766Z,101718.42
2018-01-29T05:21:38.185Z,101711.84
2018-01-29T05:24:05.620Z,101712.56
2018-01-29T05:26:33.091Z,101715.37
2018-01-29T05:29:00.623Z,101724.51
2018-01-29T05:31:28.090Z,101708.97
2018-01-29T05:33:55.518Z,101703.17
2018-01-29T05:36:29.361Z,101719.05
2018-01-29T05:38:58.720Z,101692.25
2018-01-29T05:41:26.178Z,101722.86
2018-01-29T05:43:53.613Z,101703.73
2018-01-29T05:46:21.974Z,101710.92
2018-01-29T05:48:49.554Z,101708.56
2018-01-29T05:51:17.017Z,101707.72
2018-01-29T05:53:44.445Z,101706.86
2018-01-29T05:56:11.912Z,101717.07
2018-01-29T05:58:39.346Z,101720.87
2018-01-29T06:01:06.767Z,101710.58
2018-01-29T06:03:34.217Z,101714.22
2018-01-29T06:06:01.641Z,101703.91
2018-01-29T06:08:29.081Z,101700.34
2018-01-29T06:10:56.502Z,101696.02
2018-01-29T06:13:23.952Z,101706.03
2018-01-29T06:15:51.377Z,101693.71
2018-01-29T06:18:18.850Z,101686.36
2018-01-29T06:20:47.769Z,101694.28
2018-01-29T06:23:15.217Z,101701.68
2018-01-29T06:25:42.634Z,101696.98
2018-01-29T06:28:10.112Z,101691.52
2018-01-29T06:30:37.599Z,101684.62
2018-01-29T06:33:05.066Z,101673.27
2018-01-29T06:35:32.503Z,101685.22
2018-01-29T06:37:59.965Z,101685.81
2018-01-29T06:40:27.424Z,101682.62
2018-01-29T06:42:54.886Z,101688.27
2018-01-29T06:45:22.343Z,101695.34
2018-01-29T06:47:49.854Z,101677.52
2018-01-29T06:50:17.361Z,101672.42
2018-01-29T06:52:44.794Z,101669.48
2018-01-29T06:55:12.263Z,101686.02
2018-01-29T06:57:39.697Z,101680.38
2018-01-29T07:00:07.135Z,101665.93
2018-01-29T07:02:34.613Z,101667.03
2018-01-29T07:05:02.119Z,101661.53
2018-01-29T07:07:29.562Z,101670.61
2018-01-29T07:09:57.003Z,101672.28
2018-01-29T07:12:24.435Z,101672.42
2018-01-29T07:14:52.823Z,101676.98
2018-01-29T07:17:20.253Z,101666.78
2018-01-29T07:19:48.836Z,101674.54
2018-01-29T07:22:16.264Z,101662.13
2018-01-29T07:24:43.709Z,101660.95
2018-01-29T07:27:11.130Z,101655.45
2018-01-29T07:29:38.559Z,101666.95
2018-01-29T07:32:06.019Z,101655.84
2018-01-29T07:34:33.462Z,101655.33
2018-01-29T07:37:00.992Z,101664.90
2018-01-29T07:39:28.413Z,101667.38
2018-01-29T07:41:55.888Z,101660.39
2018-01-29T07:44:23.810Z,101662.61
2018-01-29T07:46:51.262Z,101663.56
2018-01-29T07:49:18.698Z,101653.91
2018-01-29T07:51:46.170Z,101652.28
2018-01-29T07:54:13.612Z,101640.02
2018-01-29T07:56:41.195Z,101655.45
2018-01-29T07:59:08.634Z,101654.78
2018-01-29T08:01:36.103Z,101643.19
2018-01-29T08:04:03.534Z,101655.18
2018-01-29T08:06:31.140Z,101643.34
2018-01-29T08:08:58.596Z,101628.45
2018-01-29T08:11:26.031Z,101626.73
2018-01-29T08:13:53.510Z,101639.22
2018-01-29T08:16:20.945Z,101637.20
2018-01-29T08:18:48.408Z,101637.36
2018-01-29T08:21:15.836Z,101654.07
2018-01-29T08:23:43.600Z,101642.67
2018-01-29T08:26:11.068Z,101638.62
2018-01-29T08:28:38.632Z,101632.86
2018-01-29T08:31:06.066Z,101632.81
2018-01-29T08:33:33.523Z,101624.47
2018-01-29T08:36:00.971Z,101626.74
2018-01-29T08:38:28.478Z,101646.08
2018-01-29T08:40:55.956Z,101623.28
2018-01-29T08:43:23.435Z,101626.62
2018-01-29T08:45:50.907Z,101618.70
2018-01-29T08:48:18.587Z,101623.04
2018-01-29T08:50:46.022Z,101620.70
2018-01-29T08:53:13.474Z,101617.52
2018-01-29T08:55:40.917Z,101609.05
2018-01-29T08:58:08.397Z,101601.19
2018-01-29T09:00:35.989Z,101593.13
2018-01-29T09:03:03.433Z,101596.22
2018-01-29T09:05:30.879Z,101602.81
2018-01-29T09:07:58.401Z,101598.17
2018-01-29T09:10:25.877Z,101617.52
2018-01-29T09:12:53.320Z,101600.39
2018-01-29T09:15:20.793Z,101582.19
2018-01-29T09:17:48.275Z,101598.95
2018-01-29T09:20:15.726Z,101596.84
2018-01-29T09:22:44.101Z,101577.94
2018-01-29T09:25:11.559Z,101579.70
2018-01-29T09:27:38.997Z,101580.36
2018-01-29T09:30:06.492Z,101567.20
2018-01-29T09:32:33.921Z,101569.75
2018-01-29T09:35:01.541Z,101571.94
2018-01-29T09:37:28.976Z,101572.53
2018-01-29T09:39:57.022Z,101574.47
2018-01-29T09:42:24.541Z,101575.20
2018-01-29T09:44:53.177Z,101593.02
2018-01-29T09:47:20.725Z,101570.03
2018-01-29T09:49:48.428Z,101570.52
2018-01-29T09:52:16.286Z,101569.11
2018-01-29T09:54:43.882Z,101564.61
2018-01-29T09:57:11.319Z,101574.45
2018-01-29T09:59:38.888Z,101564.92
2018-01-29T10:02:06.322Z,101564.94
2018-01-29T10:04:33.785Z,101564.02
2018-01-29T10:07:01.231Z,101568.91
2018-01-29T10:09:28.735Z,101560.91
2018-01-29T10:11:56.193Z,101567.46
2018-01-29T10:14:23.625Z,101556.03
2018-01-29T10:16:51.152Z,101552.83
2018-01-29T10:19:18.603Z,101565.20
2018-01-29T10:21:46.070Z,101552.44
2018-01-29T10:24:13.512Z,101554.14
2018-01-29T10:26:40.962Z,101548.80
2018-01-29T10:29:08.471Z,101544.69
2018-01-29T10:31:36.032Z,101540.75
2018-01-29T10:34:03.481Z,101553.81
2018-01-29T10:36:30.939Z,101544.07
2018-01-29T10:38:58.409Z,101547.41
2018-01-29T10:41:25.906Z,101545.73
2018-01-29T10:43:53.332Z,101528.16
2018-01-29T10:46:20.874Z,101519.97
2018-01-29T10:48:48.534Z,101527.29
2018-01-29T10:51:16.003Z,101529.80
2018-01-29T10:53:43.645Z,101525.72
2018-01-29T10:56:11.109Z,101528.95
2018-01-29T10:58:38.717Z,101538.06
2018-01-29T11:01:11.846Z,101532.96
2018-01-29T11:03:39.426Z,101525.14
2018-01-29T11:06:06.865Z,101544.36
2018-01-29T11:08:34.317Z,101526.16
2018-01-29T11:11:01.749Z,101531.26
2018-01-29T11:13:29.205Z,101520.48
2018-01-29T11:15:56.642Z,101529.80
2018-01-29T11:18:26.685Z,101530.38
2018-01-29T11:20:54.284Z,101524.74
2018-01-29T11:23:21.739Z,101537.95
2018-01-29T11:25:49.210Z,101523.50
2018-01-29T11:28:16.678Z,101521.10
2018-01-29T11:30:44.159Z,101526.96
2018-01-29T11:33:11.625Z,101518.70
2018-01-29T11:35:39.069Z,101506.06
2018-01-29T11:38:06.535Z,101515.64
2018-01-29T11:40:34.867Z,101508.73
2018-01-29T11:43:02.321Z,101493.72
2018-01-29T11:45:29.758Z,101481.68
2018-01-29T11:47:57.241Z,101480.27
2018-01-29T11:50:24.674Z,101459.30
2018-01-29T11:52:52.113Z,101468.06
2018-01-29T11:55:19.556Z,101463.41
2018-01-29T11:57:46.997Z,101448.92
2018-01-29T12:00:14.442Z,101459.55
2018-01-29T12:02:41.885Z,101461.27
2018-01-29T12:05:09.385Z,101448.02
2018-01-29T12:07:36.798Z,101454.73
2018-01-29T12:10:04.399Z,101446.17
2018-01-29T12:12:31.829Z,101437.67
2018-01-29T12:14:59.285Z,101429.15
2018-01-29T12:17:27.265Z,101418.27
2018-01-29T12:19:56.974Z,101415.87
2018-01-29T12:22:24.411Z,101427.88
2018-01-29T12:24:51.878Z,101416.93
2018-01-29T12:27:19.401Z,101405.70
2018-01-29T12:29:46.877Z,101404.27
2018-01-29T12:32:14.411Z,101398.08
2018-01-29T12:34:41.857Z,101402.09
2018-01-29T12:37:09.313Z,101400.90
2018-01-29T12:39:36.793Z,101388.33
2018-01-29T12:42:04.229Z,101410.67
2018-01-29T12:44:31.678Z,101392.83
2018-01-29T12:46:59.165Z,101372.08
2018-01-29T12:49:26.597Z,101375.38
2018-01-29T12:51:54.054Z,101368.64
2018-01-29T12:54:21.485Z,101387.26
2018-01-29T12:56:49.113Z,101381.03
2018-01-29T12:59:16.793Z,101368.70
2018-01-29T13:01:44.242Z,101376.88
2018-01-29T13:04:11.687Z,101368.34
2018-01-29T13:06:39.142Z,101360.54
2018-01-29T13:09:06.589Z,101367.10
2018-01-29T13:11:34.048Z,101359.22
2018-01-29T13:14:01.505Z,101342.89
2018-01-29T13:16:28.953Z,101335.65
2018-01-29T13:18:56.382Z,101342.72
2018-01-29T13:21:23.833Z,101341.81
2018-01-29T13:23:51.281Z,101328.56
2018-01-29T13:26:19.733Z,101324.67
2018-01-29T13:28:47.529Z,101326.81
2018-01-29T13:31:14.969Z,101324.41
2018-01-29T13:33:42.559Z,101311.91
2018-01-29T13:36:10.006Z,101303.05
2018-01-29T13:38:37.466Z,101296.56
2018-01-29T13:41:04.890Z,101300.49
2018-01-29T13:43:32.344Z,101308.70
2018-01-29T13:45:59.769Z,101288.52
2018-01-29T13:48:27.268Z,101305.80
2018-01-29T13:50:54.687Z,101301.59
2018-01-29T13:53:22.140Z,101285.97
2018-01-29T13:55:49.575Z,101284.02
2018-01-29T13:58:17.257Z,101277.62
2018-01-29T14:00:44.702Z,101273.70
2018-01-29T14:03:12.209Z,101269.03
2018-01-29T14:05:39.687Z,101267.86
2018-01-29T14:08:07.136Z,101272.48
2018-01-29T14:10:34.556Z,101275.50
2018-01-29T14:13:02.097Z,101272.69
2018-01-29T14:15:29.531Z,101274.09
2018-01-29T14:17:57.057Z,101285.27
2018-01-29T14:20:24.551Z,101267.09
2018-01-29T14:22:52.033Z,101269.67
2018-01-29T14:25:19.534Z,101269.14
2018-01-29T14:27:47.113Z,101262.02
2018-01-29T14:30:14.553Z,101257.06
2018-01-29T14:32:41.986Z,101253.37
2018-01-29T14:35:09.428Z,101252.89
2018-01-29T14:37:36.866Z,101255.31
2018-01-29T14:40:04.470Z,101244.28
2018-01-29T14:42:31.949Z,101246.90
2018-01-29T14:44:59.405Z,101241.53
2018-01-29T14:47:26.845Z,101251.93
2018-01-29T14:49:54.297Z,101240.16
2018-01-29T14:52:21.766Z,101240.83
2018-01-29T14:54:49.702Z,101236.64
2018-01-29T14:57:17.179Z,101232.69
2018-01-29T14:59:44.641Z,101227.81
2018-01-29T15:02:12.076Z,101220.14
2018-01-29T15:04:39.596Z,101219.28
2018-01-29T15:07:07.169Z,101213.00
2018-01-29T15:09:34.636Z,101215.23
2018-01-29T15:12:02.091Z,101208.69
2018-01-29T15:14:29.531Z,101221.82
2018-01-29T15:16:58.248Z,101209.45
2018-01-29T15:19:25.825Z,101221.25
2018-01-29T15:21:53.273Z,101235.33
2018-01-29T15:24:20.714Z,101207.97
2018-01-29T15:26:48.161Z,101207.16
2018-01-29T15:29:15.589Z,101193.97
2018-01-29T15:31:43.057Z,101207.42
2018-01-29T15:34:10.637Z,101210.74
2018-01-29T15:36:38.076Z,101208.30
2018-01-29T15:39:05.537Z,101204.88
2018-01-29T15:41:32.989Z,101201.39
2018-01-29T15:44:00.593Z,101202.77
2018-01-29T15:46:28.439Z,101201.06
2018-01-29T15:48:55.847Z,101188.62
2018-01-29T15:51:23.313Z,101195.52
2018-01-29T15:53:50.792Z,101185.16
2018-01-29T15:56:18.357Z,101187.55
2018-01-29T15:58:45.802Z,101198.52
2018-01-29T16:01:13.288Z,101192.72
2018-01-29T16:03:40.741Z,101194.30
2018-01-29T16:06:08.177Z,101201.63
2018-01-29T16:08:35.714Z,101195.70
2018-01-29T16:11:03.156Z,101190.70
2018-01-29T16:13:30.573Z,101192.72
2018-01-29T16:15:58.079Z,101198.66
2018-01-29T16:18:25.518Z,101194.09
2018-01-29T16:20:52.973Z,101195.91
2018-01-29T16:23:20.530Z,101190.75
2018-01-29T16:25:48.674Z,101187.69
2018-01-29T16:28:16.102Z,101177.67
2018-01-29T16:30:43.722Z,101187.59
2018-01-29T16:33:11.149Z,101180.95
2018-01-29T16:35:39.698Z,101199.30
2018-01-29T16:38:07.138Z,101183.38
2018-01-29T16:40:34.773Z,101191.31
2018-01-29T16:43:02.257Z,101186.72
2018-01-29T16:45:29.746Z,101186.67
2018-01-29T16:47:57.538Z,101173.30
2018-01-29T16:50:25.058Z,101177.98
2018-01-29T16:52:52.500Z,101184.16
2018-01-29T16:55:20.519Z,101184.38
2018-01-29T16:57:48.073Z,101180.56
2018-01-29T17:00:15.505Z,101184.80
2018-01-29T17:02:43.264Z,101183.45
2018-01-29T17:05:10.702Z,101191.31
2018-01-29T17:07:38.861Z,101195.23
2018-01-29T17:10:06.281Z,101201.61
2018-01-29T17:12:33.721Z,101214.69
2018-01-29T17:15:01.155Z,101222.16
2018-01-29T17:17:28.681Z,101216.28
2018-01-29T17:19:56.120Z,101215.48
2018-01-29T17:22:23.578Z,101204.38
2018-01-29T17:24:51.421Z,101211.60
2018-01-29T17:27:20.002Z,101208.87
2018-01-29T17:29:47.515Z,101203.34
2018-01-29T17:32:14.996Z,101203.84
2018-01-29T17:34:42.574Z,101204.95
2018-01-29T17:37:10.343Z,101194.64
2018-01-29T17:39:37.866Z,101205.78
2018-01-29T17:42:05.298Z,101182.08
2018-01-29T17:44:34.068Z,101174.25
2018-01-29T17:47:01.510Z,101171.80
2018-01-29T17:49:28.961Z,101176.91
2018-01-29T17:51:56.413Z,101172.13
2018-01-29T17:54:23.854Z,101170.23
2018-01-29T17:56:51.322Z,101167.41
2018-01-29T17:59:18.769Z,101167.80
2018-01-29T18:01:46.521Z,101163.48
2018-01-29T18:04:13.967Z,101166.28
2018-01-29T18:06:41.446Z,101172.77
2018-01-29T18:09:08.983Z,101172.75
2018-01-29T18:11:36.452Z,101182.23
2018-01-29T18:14:03.890Z,101174.75
2018-01-29T18:16:31.385Z,101188.77
2018-01-29T18:18:59.037Z,101181.32
2018-01-29T18:21:26.486Z,101187.95
2018-01-29T18:23:55.517Z,101181.23
2018-01-29T18:26:22.962Z,101180.05
2018-01-29T18:28:51.193Z,101179.95
2018-01-29T18:31:18.674Z,101172.29
2018-01-29T18:33:50.941Z,101180.03
2018-01-29T18:36:18.418Z,101174.52
2018-01-29T18:38:45.862Z,101170.42
2018-01-29T18:41:13.363Z,101169.50
2018-01-29T18:43:40.809Z,101180.67
2018-01-29T18:46:08.237Z,101171.36
2018-01-29T18:48:35.808Z,101173.95
2018-01-29T18:51:03.238Z,101175.52
2018-01-29T18:53:30.701Z,101192.59
2018-01-29T18:55:58.140Z,101160.41
2018-01-29T18:58:25.597Z,101180.45
2018-01-29T19:00:53.027Z,101175.69
2018-01-29T19:03:21.018Z,101200.27
2018-01-29T19:05:48.484Z,101167.67
2018-01-29T19:08:15.961Z,101172.84
2018-01-29T19:10:43.397Z,101175.80
2018-01-29T19:13:10.850Z,101206.94
2018-01-29T19:15:38.288Z,101175.19
2018-01-29T19:18:05.751Z,101176.83
2018-01-29T19:20:33.192Z,101171.40
2018-01-29T19:23:00.653Z,101182.50
2018-01-29T19:25:28.094Z,101180.48
2018-01-29T19:27:55.570Z,101178.50
2018-01-29T19:30:23.005Z,101169.69
2018-01-29T19:32:51.361Z,101169.39
2018-01-29T19:35:18.812Z,101173.72
2018-01-29T19:37:46.255Z,101179.58
2018-01-29T19:40:13.737Z,101177.99
2018-01-29T19:42:41.291Z,101182.52
2018-01-29T19:45:08.747Z,101168.63
2018-01-29T19:47:36.185Z,101164.15
2018-01-29T19:50:03.901Z,101176.55
2018-01-29T19:52:31.385Z,101172.77
2018-01-29T19:54:58.846Z,101178.73
2018-01-29T19:57:26.292Z,101182.66
2018-01-29T19:59:53.746Z,101181.41
2018-01-29T20:02:21.385Z,101195.91
2018-01-29T20:04:49.000Z,101207.06
2018-01-29T20:07:16.431Z,101203.65
2018-01-29T20:09:43.965Z,101201.70
2018-01-29T20:12:11.401Z,101195.84
2018-01-29T20:14:38.873Z,101203.48
2018-01-29T20:17:06.422Z,101202.72
2018-01-29T20:19:33.868Z,101211.66
2018-01-29T20:22:01.309Z,101213.91
2018-01-29T20:24:28.742Z,101212.80
2018-01-29T20:26:56.213Z,101225.94
2018-01-29T20:29:23.666Z,101220.58
2018-01-29T20:31:51.534Z,101231.64
2018-01-29T20:34:18.994Z,101238.95
2018-01-29T20:36:46.729Z,101247.06
2018-01-29T20:39:14.165Z,101238.78
2018-01-29T20:41:41.669Z,101245.05
2018-01-29T20:44:09.196Z,101242.71
2018-01-29T20:46:36.709Z,101255.38
2018-01-29T20:49:04.509Z,101251.19
2018-01-29T20:51:31.994Z,101255.11
2018-01-29T20:53:59.440Z,101244.86
2018-01-29T20:56:26.925Z,101238.72
2018-01-29T20:58:54.365Z,101232.34
2018-01-29T21:01:21.893Z,101244.79
2018-01-29T21:03:49.399Z,101237.64
2018-01-29T21:06:16.821Z,101249.48
2018-01-29T21:08:44.318Z,101251.86
2018-01-29T21:11:12.026Z,101254.21
2018-01-29T21:16:13.433Z,101262.59
2018-01-29T21:18:40.892Z,101254.24
2018-01-29T21:21:08.333Z,101251.96
2018-01-29T21:23:35.788Z,101252.80
2018-01-29T21:26:03.894Z,101251.56
2018-01-29T21:28:31.350Z,101249.25
2018-01-29T21:30:58.806Z,101253.80
2018-01-29T21:33:26.253Z,101258.31
2018-01-29T21:35:53.783Z,101260.09
2018-01-29T21:38:22.169Z,101275.02
2018-01-29T21:40:50.006Z,101285.95
2018-01-29T21:43:17.459Z,101291.59
2018-01-29T21:45:44.997Z,101287.93
2018-01-29T21:48:12.430Z,101282.00
2018-01-29T21:50:39.884Z,101293.58
2018-01-29T21:53:07.321Z,101290.84
2018-01-29T21:55:34.799Z,101283.55
2018-01-29T21:58:02.361Z,101286.90
2018-01-29T22:00:29.830Z,101289.02
2018-01-29T22:02:57.252Z,101305.94
2018-01-29T22:05:24.697Z,101296.50
2018-01-29T22:07:52.176Z,101301.36
2018-01-29T22:10:19.681Z,101307.97
2018-01-29T22:12:47.334Z,101310.78
2018-01-29T22:15:14.782Z,101314.13
2018-01-29T22:17:42.317Z,101303.59
2018-01-29T22:20:09.869Z,101307.67
2018-01-29T22:22:37.327Z,101313.15
2018-01-29T22:25:04.786Z,101307.29
2018-01-29T22:27:32.251Z,101308.27
2018-01-29T22:29:59.703Z,101321.17
2018-01-29T22:32:27.183Z,101311.41
2018-01-29T22:34:54.642Z,101331.14
2018-01-29T22:37:22.294Z,101326.41
2018-01-29T22:39:49.745Z,101324.19
2018-01-29T22:42:17.209Z,101331.41
2018-01-29T22:44:44.829Z,101337.14
2018-01-29T22:47:12.337Z,101334.99
2018-01-29T22:49:39.782Z,101341.11
2018-01-29T22:52:07.234Z,101350.72
2018-01-29T22:54:34.697Z,101354.39
2018-01-29T22:57:02.159Z,101356.83
2018-01-29T22:59:29.605Z,101360.59
2018-01-29T23:01:57.085Z,101366.36
2018-01-29T23:04:24.546Z,101364.05
2018-01-29T23:06:52.342Z,101369.55
2018-01-29T23:09:19.850Z,101376.02
2018-01-29T23:11:47.281Z,101379.63
2018-01-29T23:14:14.752Z,101385.63
2018-01-29T23:16:42.209Z,101394.48
2018-01-29T23:19:09.700Z,101391.73
2018-01-29T23:21:37.151Z,101391.66
2018-01-29T23:24:04.612Z,101400.50
2018-01-29T23:26:32.054Z,101410.49
2018-01-29T23:28:59.501Z,101425.19
2018-01-29T23:31:26.921Z,101432.03
2018-01-29T23:33:54.463Z,101437.63
2018-01-29T23:36:24.723Z,101441.62
2018-01-29T23:38:52.641Z,101438.09
2018-01-29T23:41:20.070Z,101429.86
2018-01-29T23:43:47.518Z,101430.41
2018-01-29T23:46:14.982Z,101423.28
2018-01-29T23:48:42.445Z,101425.58
2018-01-29T23:51:09.926Z,101425.46
2018-01-29T23:53:37.381Z,101433.94
2018-01-29T23:56:04.824Z,101430.30
2018-01-29T23:58:32.253Z,101433.56
